Latest Weather Observations for Kowanyama

IDQ60801

Issued at 12:02 pm EST Wednesday 27 May 2015 (issued every 30 minutes, with the page automatically refreshed every 10 minutes)

About weather observations | Map of weather stations | Latest weather observations for QLD | Other Formats
Station Details ID: 029038 Name: KOWANYAMA AIRPORT Lat: -15.48 Lon: 141.75 Height: 9.6 m
Data from the previous 72 hours. | See also: Recent months at Kowanyama
Date/Time
EST
Temp
°C
App
Temp
°C
Dew
Point
Rel
Hum
%
Delta-T
°C
Wind Press
QNH
hPa
Press
MSL
hPa
Rain
since 9 am
mm
Dir
 
Spd
km/h
Gust
km/h
Spd
kts
Gust
kts
27/12:00pm 31.1 29.3 15.5 39 9.6 E 19 28 10 15 1015.2 1015.1 0.0
27/11:30am 30.3 29.0 16.7 44 8.5 ESE 19 30 10 16 1015.7 1015.6 0.0
27/11:00am 29.1 27.7 16.6 46 7.8 ESE 19 28 10 15 1016.2 1016.1 0.0
27/10:30am 27.8 26.5 16.7 50 6.9 E 19 30 10 16 1016.5 1016.4 0.0
27/10:00am 26.8 24.9 16.7 54 6.3 ESE 22 35 12 19 1016.7 1016.6 0.0
27/09:30am 26.1 25.5 17.5 59 5.4 E 17 28 9 15 1016.9 1016.8 0.0
27/09:00am 24.9 24.1 17.9 65 4.4 E 19 26 10 14 1016.9 1016.8 0.0
27/08:30am 23.3 24.1 18.2 73 3.2 E 11 19 6 10 1016.9 1016.8 0.0
27/08:00am 21.5 22.6 18.1 81 2.1 ESE 9 11 5 6 1016.8 1016.7 0.0
27/07:30am 19.5 21.5 17.8 90 1.0 SE 4 7 2 4 1016.7 1016.6 0.0
27/07:00am 19.0 20.4 17.3 90 1.0 ESE 6 6 3 3 1016.2 1016.1 0.0
27/06:30am 19.6 21.2 17.9 90 1.0 ESE 6 7 3 4 1015.9 1015.8 0.0
27/06:00am 19.1 20.4 17.2 89 1.2 SE 6 7 3 4 1015.9 1015.8 0.0
27/05:30am 19.3 21.9 17.4 89 1.2 CALM 0 0 0 0 1015.7 1015.6 0.0
27/05:00am 20.0 22.5 17.2 84 1.7 CALM 0 6 0 3 1015.5 1015.4 0.0
27/04:30am 20.3 21.8 17.7 85 1.6 E 6 7 3 4 1015.3 1015.2 0.0
27/04:00am 20.5 22.3 17.3 82 2.0 E 4 7 2 4 1015.4 1015.3 0.0
27/03:30am 21.3 23.4 17.3 78 2.5 ESE 2 6 1 3 1015.4 1015.3 0.0
27/03:00am 22.3 23.8 18.1 77 2.6 E 7 11 4 6 1015.4 1015.3 0.0
27/02:30am 22.0 23.6 18.2 79 2.4 ENE 7 11 4 6 1015.6 1015.5 0.0
27/02:00am 20.1 22.3 17.5 85 1.6 ENE 2 7 1 4 1015.9 1015.8 0.0
27/01:30am 20.3 22.5 17.5 84 1.7 ENE 2 6 1 3 1015.9 1015.8 0.0
27/01:00am 20.4 22.6 17.4 83 1.8 NE 2 6 1 3 1016.0 1015.9 0.0
27/12:30am 20.4 22.1 17.2 82 2.0 NE 4 7 2 4 1016.1 1016.0 0.0
27/12:00am 20.9 23.4 17.3 80 2.2 CALM 0 0 0 0 1016.2 1016.1 0.0
 
Date/Time
EST
Temp
°C
App
Temp
°C
Dew
Point
Rel
Hum
%
Delta-T
°C
Wind Press
QNH
hPa
Press
MSL
hPa
Rain
since 9 am
mm
Dir
 
Spd
km/h
Gust
km/h
Spd
kts
Gust
kts
26/11:30pm 21.5 23.8 16.7 74 2.9 CALM 0 0 0 0 1016.1 1016.0 0.0
26/11:00pm 21.8 24.3 17.2 75 2.8 CALM 0 0 0 0 1016.1 1016.0 0.0
26/10:30pm 22.1 24.5 17.0 73 3.1 CALM 0 0 0 0 1016.2 1016.1 0.0
26/10:00pm 22.8 25.0 16.6 68 3.8 CALM 0 0 0 0 1015.9 1015.8 0.0
26/09:30pm 24.3 24.7 17.3 65 4.3 NE 11 24 6 13 1015.8 1015.7 0.0
26/09:00pm 23.4 24.6 16.9 67 4.0 W 6 7 3 4 1015.4 1015.3 0.0
26/08:30pm 24.1 25.7 15.9 60 5.0 WSW 2 7 1 4 1015.1 1015.0 0.0
26/08:00pm 23.9 24.8 16.2 62 4.7 WNW 6 9 3 5 1014.8 1014.7 0.0
26/07:30pm 25.3 26.3 14.4 50 6.5 SSE 2 6 1 3 1014.4 1014.3 0.0
26/07:00pm 26.1 27.1 14.2 48 7.1 SE 2 7 1 4 1014.1 1014.0 0.0
26/06:30pm 28.0 28.0 12.4 38 9.1 SE 4 6 2 3 1013.8 1013.7 0.0
26/06:00pm 30.5 29.8 11.9 31 10.9 SE 7 9 4 5 1013.6 1013.5 0.0
26/05:30pm 32.4 30.3 11.0 27 12.4 ESE 13 17 7 9 1013.3 1013.2 0.0
26/05:00pm 33.1 31.7 12.1 27 12.4 ESE 11 20 6 11 1013.1 1013.0 0.0
26/04:30pm 33.5 32.4 11.9 27 12.8 ESE 9 15 5 8 1013.0 1012.9 0.0
26/04:00pm 33.3 31.9 12.3 28 12.5 ESE 11 17 6 9 1013.0 1012.9 0.0
26/03:30pm 33.8 32.2 12.7 27 12.6 SE 13 19 7 10 1013.1 1013.0 0.0
26/03:00pm 33.1 31.6 13.2 30 12.0 ESE 13 22 7 12 1013.4 1013.3 0.0
26/02:30pm 33.1 30.5 13.2 30 12.0 SE 19 26 10 14 1013.7 1013.6 0.0
26/02:00pm 32.7 30.0 12.9 30 11.8 SE 19 26 10 14 1014.2 1014.1 0.0
26/01:30pm 32.7 30.5 14.3 32 11.2 ESE 19 28 10 15 1015.0 1014.9 0.0
26/01:00pm 32.8 30.8 14.9 34 11.0 SE 19 28 10 15 1015.6 1015.5 0.0
26/12:30pm 31.8 29.8 14.9 36 10.4 ESE 19 35 10 19 1016.3 1016.2 0.0
26/12:00pm 31.5 31.1 16.3 40 9.5 E 13 26 7 14 1016.9 1016.8 0.0
26/11:30am 30.5 29.2 15.8 41 9.1 ESE 17 24 9 13 1017.4 1017.3 0.0
26/11:00am 30.0 29.3 16.4 44 8.5 E 15 24 8 13 1017.7 1017.6 0.0
26/10:30am 29.0 28.1 16.9 48 7.6 ESE 17 24 9 13 1018.2 1018.1 0.0
26/10:00am 27.7 26.0 16.3 49 7.0 ESE 20 28 11 15 1018.5 1018.4 0.0
26/09:30am 26.7 25.8 16.9 55 6.1 ESE 17 26 9 14 1018.7 1018.6 0.0
26/09:00am 25.6 24.9 17.3 60 5.2 ESE 17 24 9 13 1018.7 1018.6 0.0
26/08:30am 24.4 23.7 17.4 65 4.4 ESE 17 20 9 11 1018.6 1018.5 0.0
26/08:00am 23.1 23.1 17.1 69 3.7 ESE 13 19 7 10 1018.5 1018.4 0.0
26/07:30am 22.0 23.0 16.9 73 3.1 SE 7 11 4 6 1018.3 1018.2 0.0
26/07:00am 21.8 22.5 17.0 74 2.9 ESE 9 13 5 7 1018.0 1017.9 0.0
26/06:30am 22.2 22.6 17.3 74 3.0 ESE 11 15 6 8 1017.6 1017.5 0.0
26/06:00am 22.2 22.6 17.3 74 3.0 SE 11 13 6 7 1017.7 1017.6 0.0
26/05:30am 22.9 23.8 17.6 72 3.3 ESE 9 11 5 6 1017.4 1017.3 0.0
26/05:00am 23.2 24.1 17.6 71 3.5 ESE 9 13 5 7 1017.2 1017.1 0.0
26/04:30am 23.4 24.4 17.8 71 3.5 E 9 11 5 6 1017.4 1017.3 0.0
26/04:00am 23.5 24.5 17.7 70 3.6 E 9 11 5 6 1017.3 1017.2 0.0
26/03:30am 23.4 25.0 17.8 71 3.5 SE 6 9 3 5 1017.4 1017.3 0.0
26/03:00am 24.6 26.1 18.1 67 4.1 ESE 7 13 4 7 1017.6 1017.5 0.0
26/02:30am 24.9 26.1 18.3 66 4.2 ESE 9 11 5 6 1017.8 1017.7 0.0
26/02:00am 24.7 26.0 18.4 68 4.0 E 9 13 5 7 1018.0 1017.9 0.0
26/01:30am 24.8 26.3 19.0 70 3.7 E 9 13 5 7 1018.0 1017.9 0.0
26/01:00am 24.3 26.4 19.4 74 3.1 ENE 7 11 4 6 1018.2 1018.1 0.0
26/12:30am 22.9 26.2 19.1 79 2.4 CALM 0 0 0 0 1018.1 1018.0 0.0
26/12:00am 23.0 26.3 19.0 78 2.5 CALM 0 0 0 0 1018.2 1018.1 0.0
 
Date/Time
EST
Temp
°C
App
Temp
°C
Dew
Point
Rel
Hum
%
Delta-T
°C
Wind Press
QNH
hPa
Press
MSL
hPa
Rain
since 9 am
mm
Dir
 
Spd
km/h
Gust
km/h
Spd
kts
Gust
kts
25/11:30pm 23.1 26.3 18.8 77 2.7 CALM 0 0 0 0 1018.3 1018.2 0.0
25/11:00pm 23.7 25.9 19.2 76 2.9 NE 6 9 3 5 1018.3 1018.2 0.0
25/10:30pm 23.8 27.2 19.3 76 2.9 CALM 0 0 0 0 1018.3 1018.2 0.0
25/10:00pm 24.3 27.6 19.1 73 3.3 CALM 0 0 0 0 1017.8 1017.7 0.0
25/09:30pm 24.7 26.9 19.1 71 3.6 NW 6 9 3 5 1017.5 1017.4 0.0
25/09:00pm 25.2 27.8 19.3 70 3.8 NW 4 9 2 5 1017.1 1017.0 0.0
25/08:30pm 26.4 29.0 19.3 65 4.6 WNW 4 7 2 4 1016.7 1016.6 0.0
25/08:00pm 26.7 28.9 19.1 63 4.9 NW 6 11 3 6 1016.1 1016.0 0.0
25/07:30pm 27.2 29.1 19.0 61 5.3 WNW 7 9 4 5 1015.6 1015.5 0.0
25/07:00pm 27.9 29.8 18.9 58 5.8 WNW 7 11 4 6 1015.2 1015.1 0.0
25/06:30pm 29.0 30.7 19.3 55 6.3 NW 9 15 5 8 1014.7 1014.6 0.0
25/06:00pm 29.5 32.8 19.2 54 6.7 CALM 0 6 0 3 1014.5 1014.4 0.0
25/05:30pm 31.5 32.7 17.4 43 9.0 E 7 9 4 5 1014.3 1014.2 0.0
25/05:00pm 32.1 33.4 17.6 42 9.3 ESE 7 11 4 6 1014.2 1014.1 0.0
25/04:30pm 32.6 33.7 17.2 39 9.8 ENE 7 13 4 7 1014.1 1014.0 0.0
25/04:00pm 33.6 34.0 17.3 37 10.4 ENE 11 19 6 10 1013.9 1013.8 0.0
25/03:30pm 33.5 33.3 16.8 36 10.6 E 13 20 7 11 1013.9 1013.8 0.0
25/03:00pm 33.4 33.0 17.1 37 10.4 ENE 15 24 8 13 1014.0 1013.9 0.0
25/02:30pm 33.6 33.5 16.9 37 10.6 E 13 24 7 13 1014.1 1014.0 0.0
25/02:00pm 32.8 31.8 16.6 38 10.2 E 17 26 9 14 1014.5 1014.4 0.0
25/01:30pm 33.0 31.5 16.4 37 10.5 ESE 19 28 10 15 1015.1 1015.0 0.0
25/01:00pm 32.3 30.7 16.6 39 9.9 ESE 20 30 11 16 1015.6 1015.5 0.0
25/12:30pm 31.9 30.7 17.0 41 9.4 E 19 30 10 16 1016.3 1016.2 0.0
25/12:00pm 31.8 30.7 17.7 43 9.0 E 20 28 11 15 1016.6 1016.5 0.0
25/11:30am 30.4 29.6 17.1 44 8.4 E 17 28 9 15 1017.2 1017.1 0.0
25/11:00am 29.6 28.5 17.4 47 7.7 E 19 28 10 15 1017.5 1017.4 0.0
25/10:30am 28.8 27.7 17.7 51 7.0 E 20 32 11 17 1018.0 1017.9 0.0
25/10:00am 27.6 26.4 17.5 54 6.3 E 20 33 11 18 1018.3 1018.2 0.0
25/09:30am 26.7 26.5 17.7 57 5.7 E 15 26 8 14 1018.5 1018.4 0.0
25/09:00am 25.1 24.9 17.6 63 4.7 ESE 15 20 8 11 1018.6 1018.5 0.0
25/08:30am 23.1 23.1 17.3 70 3.6 ESE 13 15 7 8 1018.5 1018.4 0.0
25/08:00am 21.2 21.6 17.2 78 2.4 SE 11 13 6 7 1018.2 1018.1 0.0
25/07:30am 19.5 20.7 16.9 85 1.6 SE 6 9 3 5 1017.9 1017.8 0.0
25/07:00am 18.7 19.8 16.7 88 1.2 SSE 6 7 3 4 1017.6 1017.5 0.0
25/06:30am 18.3 20.5 16.6 90 1.0 CALM 0 0 0 0 1017.4 1017.3 0.0
25/06:00am 18.4 20.7 16.7 90 1.0 CALM 0 0 0 0 1017.0 1016.9 0.0
25/05:30am 18.3 20.5 16.6 90 1.0 CALM 0 0 0 0 1016.8 1016.7 0.0
25/05:00am 18.9 21.3 16.9 88 1.2 CALM 0 0 0 0 1016.8 1016.7 0.0
25/04:30am 19.2 21.3 16.2 83 1.8 CALM 0 0 0 0 1016.8 1016.7 0.0
25/04:00am 20.2 21.3 16.6 80 2.2 E 6 7 3 4 1016.7 1016.6 0.0
25/03:30am 21.2 22.5 17.6 80 2.2 E 7 11 4 6 1016.8 1016.7 0.0
25/03:00am 19.8 21.4 17.9 89 1.2 E 6 7 3 4 1017.0 1016.9 0.0
25/02:30am 19.5 21.4 17.6 89 1.2 ESE 4 7 2 4 1017.1 1017.0 0.0
25/02:00am 19.8 22.6 17.9 89 1.2 CALM 0 0 0 0 1017.2 1017.1 0.0
25/01:30am 19.8 22.7 18.1 90 1.1 CALM 0 0 0 0 1017.1 1017.0 0.0
25/01:00am 19.9 21.6 18.0 89 1.2 NE 6 7 3 4 1017.2 1017.1 0.0
25/12:30am 20.5 23.4 18.1 86 1.5 CALM 0 0 0 0 1017.5 1017.4 0.0
25/12:00am 21.1 24.2 18.7 86 1.5 CALM 0 0 0 0 1017.6 1017.5 0.0
 
Date/Time
EST
Temp
°C
App
Temp
°C
Dew
Point
Rel
Hum
%
Delta-T
°C
Wind Press
QNH
hPa
Press
MSL
hPa
Rain
since 9 am
mm
Dir
 
Spd
km/h
Gust
km/h
Spd
kts
Gust
kts
24/11:30pm 21.0 24.1 18.6 86 1.5 CALM 0 0 0 0 1017.4 1017.3 0.0
24/11:00pm 21.3 23.2 18.5 84 1.7 NE 6 9 3 5 1017.5 1017.4 0.0
24/10:30pm 21.9 25.2 19.1 84 1.8 CALM 0 0 0 0 1017.1 1017.0 0.0
24/10:00pm 21.9 25.1 18.9 83 1.9 CALM 0 0 0 0 1016.9 1016.8 0.0
24/09:30pm 22.2 24.3 19.0 82 2.0 NW 6 7 3 4 1016.8 1016.7 0.0
24/09:00pm 22.3 23.9 17.9 76 2.7 NW 6 7 3 4 1016.5 1016.4 0.0
24/08:30pm 23.3 26.0 18.6 75 3.0 NW 2 7 1 4 1016.2 1016.1 0.0
24/08:00pm 23.9 25.5 17.9 69 3.7 W 6 7 3 4 1015.7 1015.6 0.0
24/07:30pm 23.8 26.1 16.8 65 4.3 CALM 0 0 0 0 1015.2 1015.1 0.0
24/07:00pm 25.0 27.1 16.2 58 5.4 CALM 0 0 0 0 1014.9 1014.8 0.0
24/06:30pm 26.1 26.8 15.5 52 6.4 ESE 6 7 3 4 1014.5 1014.4 0.0
24/06:00pm 28.0 28.5 15.0 45 7.9 ESE 6 7 3 4 1014.3 1014.2 0.0
24/05:30pm 30.4 30.2 13.7 36 10.0 ESE 7 11 4 6 1013.9 1013.8 0.0
24/05:00pm 31.3 30.7 13.6 34 10.6 ESE 9 13 5 7 1013.6 1013.5 0.0
24/04:30pm 31.6 30.2 13.4 33 10.9 ESE 13 20 7 11 1013.4 1013.3 0.0
24/04:00pm 31.9 29.7 13.2 32 11.2 ESE 17 24 9 13 1013.2 1013.1 0.0
24/03:30pm 32.1 29.9 13.3 31 11.3 ESE 17 24 9 13 1013.2 1013.1 0.0
24/03:00pm 31.8 30.2 14.0 34 10.8 ESE 15 19 8 10 1013.3 1013.2 0.0
24/02:30pm 31.8 30.1 13.5 32 11.0 E 15 26 8 14 1013.4 1013.3 0.0
24/02:00pm 32.1 30.2 14.3 34 10.9 ESE 17 24 9 13 1013.6 1013.5 0.0
24/01:30pm 31.5 30.4 14.2 35 10.5 E 13 22 7 12 1014.2 1014.1 0.0
24/01:00pm 30.8 29.5 14.8 37 9.8 ESE 15 26 8 14 1014.7 1014.6 0.0
24/12:30pm 30.7 29.7 15.5 39 9.4 E 15 24 8 13 1015.3 1015.2 0.0

Other Formats:

Comma delimited format used in spreadsheet applications
http://www.bom.gov.au/fwo/IDQ60801/IDQ60801.94268.axf

JavaScript Object Notation format (JSON) in row-major order
http://www.bom.gov.au/fwo/IDQ60801/IDQ60801.94268.json